createdAt,value
2022-11-27T00:02:44.222Z,3.01
2022-11-27T00:07:51.395Z,3.01
2022-11-27T00:12:58.462Z,3.01
2022-11-27T00:18:05.598Z,3.01
2022-11-27T00:23:12.767Z,3.01
2022-11-27T00:28:19.950Z,3.01
2022-11-27T00:33:27.139Z,3.01
2022-11-27T00:38:38.491Z,3.01
2022-11-27T00:43:45.471Z,3.01
2022-11-27T00:48:48.776Z,2.17
2022-11-27T00:53:55.934Z,2.17
2022-11-27T00:59:03.169Z,1.58
2022-11-27T01:04:10.339Z,2.17
2022-11-27T01:09:17.560Z,1.58
2022-11-27T01:14:24.860Z,1.58
2022-11-27T01:19:31.954Z,1.58
2022-11-27T01:24:39.425Z,1.58
2022-11-27T01:29:46.359Z,2.75
2022-11-27T01:34:54.492Z,2.75
2022-11-27T01:40:00.785Z,2.75
2022-11-27T01:45:08.038Z,3.30
2022-11-27T01:50:15.243Z,3.30
2022-11-27T01:55:22.633Z,3.30
2022-11-27T02:00:29.863Z,3.59
2022-11-27T02:05:37.038Z,2.75
2022-11-27T02:10:44.265Z,3.01
2022-11-27T02:15:51.481Z,3.01
2022-11-27T02:20:58.652Z,3.01
2022-11-27T02:26:05.885Z,1.58
2022-11-27T02:31:13.183Z,1.58
2022-11-27T02:36:20.555Z,1.58
2022-11-27T02:41:27.754Z,1.58
2022-11-27T02:46:35.157Z,0.96
2022-11-27T02:51:42.187Z,1.58
2022-11-27T02:56:49.374Z,0.74
2022-11-27T03:01:56.795Z,0.12
2022-11-27T03:07:03.846Z,0.74
2022-11-27T03:12:11.106Z,0.12
2022-11-27T03:17:18.410Z,-0.10
2022-11-27T03:22:25.483Z,-0.10
2022-11-27T03:27:32.638Z,-0.94
2022-11-27T03:32:39.963Z,-0.36
2022-11-27T03:37:47.068Z,-0.36
2022-11-27T03:42:54.237Z,-1.21
2022-11-27T03:48:07.417Z,-0.65
2022-11-27T03:53:08.755Z,-1.50
2022-11-27T03:58:15.858Z,-0.11
2022-11-27T04:03:23.078Z,-0.11
2022-11-27T04:08:30.457Z,-0.11
2022-11-27T04:13:37.503Z,-0.11
2022-11-27T04:18:44.743Z,-0.11
2022-11-27T04:23:52.067Z,-0.11
2022-11-27T04:28:59.166Z,-0.11
2022-11-27T04:34:06.408Z,-0.11
2022-11-27T04:39:13.698Z,-0.11
2022-11-27T04:44:20.795Z,-0.11
2022-11-27T04:49:27.970Z,-0.11
2022-11-27T04:54:35.313Z,-0.11
2022-11-27T04:59:42.379Z,-0.11
2022-11-27T05:04:49.612Z,-0.11
2022-11-27T05:09:56.965Z,0.41
2022-11-27T05:15:04.804Z,0.41
2022-11-27T05:20:11.324Z,0.41
2022-11-27T05:25:18.648Z,0.41
2022-11-27T05:30:25.795Z,0.41
2022-11-27T05:35:33.046Z,0.41
2022-11-27T05:40:40.371Z,0.41
2022-11-27T05:45:47.489Z,0.41
2022-11-27T05:50:54.752Z,0.41
2022-11-27T05:56:07.099Z,0.41
2022-11-27T06:01:09.287Z,0.41
2022-11-27T06:06:16.370Z,0.41
2022-11-27T06:11:23.568Z,0.41
2022-11-27T06:16:30.977Z,0.41
2022-11-27T06:21:38.007Z,0.41
2022-11-27T06:26:45.258Z,0.41
2022-11-27T06:31:52.600Z,0.41
2022-11-27T06:36:59.663Z,0.41
2022-11-27T06:42:06.879Z,0.41
2022-11-27T06:47:14.195Z,0.41
2022-11-27T06:52:21.250Z,0.41
2022-11-27T06:57:28.415Z,0.41
2022-11-27T07:02:35.800Z,0.41
2022-11-27T07:07:44.009Z,-0.44
2022-11-27T07:12:49.994Z,-0.44
2022-11-27T07:17:57.333Z,-0.44
2022-11-27T07:23:04.423Z,-0.44
2022-11-27T07:28:15.987Z,-0.44
2022-11-27T07:33:19.096Z,0.41
2022-11-27T07:38:26.194Z,0.41
2022-11-27T07:43:33.337Z,0.41
2022-11-27T07:48:40.664Z,0.41
2022-11-27T07:53:47.762Z,-0.44
2022-11-27T07:58:54.951Z,-0.44
2022-11-27T08:04:08.165Z,-0.44
2022-11-27T08:09:09.486Z,-0.44
2022-11-27T08:14:16.596Z,-0.44
2022-11-27T08:19:23.776Z,-0.44
2022-11-27T08:24:31.106Z,-0.44
2022-11-27T08:29:38.131Z,-0.44
2022-11-27T08:34:45.315Z,-0.44
2022-11-27T08:39:52.617Z,-0.44
2022-11-27T08:44:59.723Z,-0.44
2022-11-27T08:50:06.944Z,-0.44
2022-11-27T08:55:14.222Z,-0.44
2022-11-27T09:00:26.394Z,-0.44
2022-11-27T09:05:28.538Z,0.54
2022-11-27T09:10:35.836Z,0.06
2022-11-27T09:15:42.913Z,0.06
2022-11-27T09:20:50.119Z,0.92
2022-11-27T09:25:57.506Z,0.92
2022-11-27T09:31:04.628Z,0.41
2022-11-27T09:36:11.852Z,0.41
2022-11-27T09:41:19.191Z,0.41
2022-11-27T09:46:26.303Z,0.41
2022-11-27T09:51:33.367Z,0.41
2022-11-27T09:56:40.682Z,0.41
2022-11-27T10:01:51.027Z,0.75
2022-11-27T10:06:55.136Z,0.75
2022-11-27T10:12:02.523Z,0.75
2022-11-27T10:17:09.655Z,0.75
2022-11-27T10:22:20.949Z,0.75
2022-11-27T10:27:24.115Z,0.75
2022-11-27T10:32:54.688Z,0.75
2022-11-27T10:37:39.021Z,0.75
2022-11-27T10:42:46.316Z,1.27
2022-11-27T10:47:53.421Z,1.27
2022-11-27T10:53:00.603Z,2.13
2022-11-27T10:58:07.946Z,2.13
2022-11-27T11:03:15.028Z,1.60
2022-11-27T11:08:22.240Z,1.60
2022-11-27T11:13:29.569Z,1.60
2022-11-27T11:18:36.648Z,1.60
2022-11-27T11:23:43.853Z,1.60
2022-11-27T11:28:51.171Z,1.60
2022-11-27T11:33:58.243Z,1.60
2022-11-27T11:39:05.463Z,1.60
2022-11-27T11:44:12.783Z,1.05
2022-11-27T11:49:19.886Z,1.05
2022-11-27T11:54:27.096Z,1.05
2022-11-27T11:59:34.398Z,1.05
2022-11-27T12:04:41.884Z,1.05
2022-11-27T12:09:48.886Z,1.05
2022-11-27T12:14:56.205Z,1.05
2022-11-27T12:20:03.306Z,1.05
2022-11-27T12:25:10.507Z,1.05
2022-11-27T12:30:17.896Z,1.05
2022-11-27T12:35:24.928Z,1.05
2022-11-27T12:40:32.154Z,1.05
2022-11-27T12:45:39.573Z,1.05
2022-11-27T12:50:46.640Z,1.05
2022-11-27T12:55:53.883Z,1.05
2022-11-27T13:01:01.897Z,1.05
2022-11-27T13:06:08.893Z,1.05
2022-11-27T13:11:16.300Z,1.05
2022-11-27T13:16:23.736Z,1.05
2022-11-27T13:21:30.735Z,1.05
2022-11-27T13:26:38.006Z,1.05
2022-11-27T13:31:45.579Z,1.05
2022-11-27T13:36:52.711Z,1.05
2022-11-27T13:42:00.522Z,1.05
2022-11-27T13:47:13.969Z,1.05
2022-11-27T13:52:15.384Z,1.05
2022-11-27T13:57:22.575Z,1.05
2022-11-27T14:02:29.886Z,1.05
2022-11-27T14:07:37.278Z,1.05
2022-11-27T14:12:44.312Z,1.05
2022-11-27T14:17:51.784Z,1.05
2022-11-27T14:23:14.338Z,1.05
2022-11-27T14:28:06.410Z,1.05
2022-11-27T14:33:13.671Z,1.60
2022-11-27T14:38:21.334Z,2.45
2022-11-27T14:43:28.469Z,1.90
2022-11-27T14:48:36.033Z,2.45
2022-11-27T14:53:43.522Z,1.05
2022-11-27T14:58:50.951Z,1.90
2022-11-27T15:03:58.375Z,1.90
2022-11-27T15:09:43.298Z,1.90
2022-11-27T15:14:13.164Z,1.90
2022-11-27T15:19:20.694Z,1.90
2022-11-27T15:24:28.139Z,1.90
2022-11-27T15:29:35.231Z,1.90
2022-11-27T15:34:42.688Z,1.90
2022-11-27T15:39:49.747Z,1.90
2022-11-27T15:44:56.838Z,1.90
2022-11-27T15:50:04.119Z,1.90
2022-11-27T15:55:11.477Z,1.90
2022-11-27T16:00:18.851Z,1.90
2022-11-27T16:05:26.458Z,1.90
2022-11-27T16:10:33.964Z,1.90
2022-11-27T16:15:41.390Z,1.90
2022-11-27T16:20:48.999Z,1.90
2022-11-27T16:25:56.471Z,1.90
2022-11-27T16:31:03.819Z,1.90
2022-11-27T16:36:11.530Z,1.90
2022-11-27T16:41:19.276Z,1.90
2022-11-27T16:46:26.654Z,1.90
2022-11-27T16:51:33.999Z,1.90
2022-11-27T16:56:41.489Z,1.90
2022-11-27T17:01:50.039Z,1.90
2022-11-27T17:06:57.753Z,1.90
2022-11-27T17:12:05.145Z,1.90
2022-11-27T17:17:12.544Z,1.90
2022-11-27T17:22:20.056Z,1.90
2022-11-27T17:27:29.428Z,1.90
2022-11-27T17:32:36.719Z,1.90
2022-11-27T17:37:44.230Z,1.90
2022-11-27T17:42:51.968Z,2.45
2022-11-27T17:47:59.562Z,2.45
2022-11-27T17:53:07.080Z,2.45
2022-11-27T17:58:14.745Z,2.45
2022-11-27T18:03:21.947Z,2.98
2022-11-27T18:08:29.416Z,2.98
2022-11-27T18:13:37.237Z,2.45
2022-11-27T18:18:44.737Z,2.98
2022-11-27T18:28:59.982Z,3.50
2022-11-27T18:34:07.582Z,3.50
2022-11-27T18:39:15.194Z,3.50
2022-11-27T18:44:22.902Z,2.98
2022-11-27T18:49:30.098Z,2.98
2022-11-27T18:54:37.636Z,2.98
2022-11-27T18:59:50.474Z,3.84
2022-11-27T19:04:53.086Z,2.98
2022-11-27T19:10:00.676Z,3.50
2022-11-27T19:15:08.397Z,3.50
2022-11-27T19:20:16.127Z,3.50
2022-11-27T19:25:23.627Z,4.36
2022-11-27T19:30:34.219Z,4.36
2022-11-27T19:35:39.597Z,4.36
2022-11-27T19:40:47.083Z,4.36
2022-11-27T19:45:54.794Z,4.36
2022-11-27T19:51:03.451Z,4.36
2022-11-27T19:56:11.049Z,4.36
2022-11-27T20:01:18.863Z,4.36
2022-11-27T20:06:26.608Z,4.36
2022-11-27T20:11:35.329Z,4.36
2022-11-27T20:16:42.062Z,4.36
2022-11-27T20:21:49.860Z,4.36
2022-11-27T20:26:57.461Z,4.36
2022-11-27T20:32:05.185Z,4.36
2022-11-27T20:37:12.800Z,4.36
2022-11-27T20:42:20.298Z,3.84
2022-11-27T20:47:27.616Z,3.84
2022-11-27T20:52:34.913Z,3.84
2022-11-27T20:57:42.318Z,3.84
2022-11-27T21:02:50.028Z,3.84
2022-11-27T21:07:57.510Z,3.84
2022-11-27T21:13:04.493Z,3.84
2022-11-27T21:18:11.767Z,3.84
2022-11-27T21:23:19.387Z,3.84
2022-11-27T21:28:26.878Z,3.84
2022-11-27T21:33:34.186Z,4.36
2022-11-27T21:38:41.826Z,4.36
2022-11-27T21:43:49.042Z,4.36
2022-11-27T21:48:56.231Z,3.84
2022-11-27T21:54:03.523Z,3.84
2022-11-27T21:59:10.629Z,3.84
2022-11-27T22:04:17.911Z,4.69
2022-11-27T22:09:25.152Z,4.69
2022-11-27T22:14:32.292Z,4.69
2022-11-27T22:19:39.440Z,4.69
2022-11-27T22:24:46.781Z,4.69
2022-11-27T22:29:53.849Z,4.69
2022-11-27T22:35:01.082Z,4.69
2022-11-27T22:40:08.459Z,4.69
2022-11-27T22:45:15.596Z,4.69
2022-11-27T22:50:23.449Z,4.69
2022-11-27T22:55:30.815Z,4.69
2022-11-27T23:00:38.122Z,4.69
2022-11-27T23:05:45.719Z,4.69
2022-11-27T23:10:53.036Z,4.69
2022-11-27T23:16:00.153Z,4.69
2022-11-27T23:21:07.439Z,4.69
2022-11-27T23:26:17.866Z,4.69
2022-11-27T23:31:29.802Z,4.69
2022-11-27T23:36:29.010Z,5.21
2022-11-27T23:41:36.394Z,4.36
2022-11-27T23:46:43.454Z,4.69
2022-11-27T23:51:50.661Z,4.69
2022-11-27T23:56:57.955Z,4.69
